createdAt,value
2023-03-25T00:01:29.963Z,34.97
2023-03-25T00:04:04.481Z,36.00
2023-03-25T00:06:37.978Z,38.17
2023-03-25T00:09:12.182Z,35.93
2023-03-25T00:11:45.790Z,36.67
2023-03-25T00:14:19.585Z,36.03
2023-03-25T00:16:53.437Z,34.10
2023-03-25T00:19:28.016Z,35.93
2023-03-25T00:22:01.843Z,36.57
2023-03-25T00:24:35.875Z,36.47
2023-03-25T00:27:08.702Z,44.37
2023-03-25T00:29:42.238Z,33.70
2023-03-25T00:32:16.487Z,35.10
2023-03-25T00:34:50.222Z,33.80
2023-03-25T00:37:25.888Z,32.53
2023-03-25T00:40:00.135Z,34.60
2023-03-25T00:42:35.141Z,33.13
2023-03-25T00:45:11.207Z,34.40
2023-03-25T00:47:44.591Z,33.17
2023-03-25T00:50:18.639Z,32.37
2023-03-25T00:52:53.824Z,32.47
2023-03-25T00:55:27.208Z,36.37
2023-03-25T00:58:00.857Z,38.00
2023-03-25T01:00:34.462Z,37.37
2023-03-25T01:03:09.920Z,34.27
2023-03-25T01:05:43.392Z,34.27
2023-03-25T01:08:18.074Z,36.47
2023-03-25T01:10:51.330Z,36.50
2023-03-25T01:13:25.634Z,40.03
2023-03-25T01:15:58.891Z,41.80
2023-03-25T01:18:35.028Z,40.13
2023-03-25T01:21:10.643Z,38.40
2023-03-25T01:23:44.653Z,38.63
2023-03-25T01:26:18.276Z,40.03
2023-03-25T01:28:51.423Z,39.83
2023-03-25T01:31:26.234Z,40.10
2023-03-25T01:33:59.676Z,37.77
2023-03-25T01:36:33.827Z,40.27
2023-03-25T01:39:08.636Z,38.97
2023-03-25T01:41:49.148Z,40.97
2023-03-25T01:44:58.434Z,37.03
2023-03-25T01:47:33.082Z,37.33
2023-03-25T01:50:08.947Z,36.07
2023-03-25T01:52:42.719Z,34.07
2023-03-25T01:55:18.151Z,35.63
2023-03-25T01:57:54.627Z,34.60
2023-03-25T02:00:28.889Z,33.20
2023-03-25T02:03:03.445Z,34.73
2023-03-25T02:05:43.906Z,35.70
2023-03-25T02:08:18.280Z,35.03
2023-03-25T02:10:52.518Z,36.13
2023-03-25T02:13:26.468Z,38.47
2023-03-25T02:16:29.590Z,34.80
2023-03-25T02:19:26.381Z,36.33
2023-03-25T02:22:43.314Z,37.93
2023-03-25T02:25:39.892Z,34.97
2023-03-25T02:28:26.386Z,34.93
2023-03-25T02:31:38.130Z,34.50
2023-03-25T02:34:46.394Z,35.07
2023-03-25T02:37:59.583Z,32.77
2023-03-25T02:40:41.769Z,35.30
2023-03-25T02:43:21.537Z,34.80
2023-03-25T02:46:01.122Z,34.83
2023-03-25T02:48:39.490Z,39.17
2023-03-25T02:51:19.324Z,41.00
2023-03-25T02:53:54.613Z,49.23
2023-03-25T02:56:33.315Z,46.37
2023-03-25T02:59:09.952Z,37.87
2023-03-25T03:01:45.765Z,39.23
2023-03-25T03:04:19.472Z,38.20
2023-03-25T03:06:54.909Z,38.80
2023-03-25T03:09:39.717Z,38.27
2023-03-25T03:12:29.587Z,40.47
2023-03-25T03:15:17.422Z,34.13
2023-03-25T03:17:58.532Z,37.50
2023-03-25T03:20:41.076Z,36.47
2023-03-25T03:25:54.353Z,34.83
2023-03-25T03:28:34.300Z,34.83
2023-03-25T03:31:13.196Z,35.20
2023-03-25T03:34:11.179Z,41.07
2023-03-25T03:36:49.582Z,37.43
2023-03-25T03:39:29.771Z,39.00
2023-03-25T03:42:07.995Z,39.77
2023-03-25T03:44:45.617Z,41.03
2023-03-25T03:47:23.932Z,38.20
2023-03-25T03:50:01.308Z,36.47
2023-03-25T03:52:38.746Z,37.53
2023-03-25T03:55:15.770Z,38.00
2023-03-25T03:57:56.117Z,39.70
2023-03-25T04:00:34.291Z,38.67
2023-03-25T04:03:14.779Z,37.83
2023-03-25T04:05:55.159Z,38.17
2023-03-25T04:08:35.825Z,37.73
2023-03-25T04:11:18.176Z,35.30
2023-03-25T04:16:24.940Z,38.50
2023-03-25T04:18:58.772Z,40.17
2023-03-25T04:21:31.966Z,37.30
2023-03-25T04:24:08.419Z,35.43
2023-03-25T04:26:42.466Z,33.57
2023-03-25T04:29:15.905Z,38.07
2023-03-25T04:31:50.882Z,39.70
2023-03-25T04:34:24.910Z,41.33
2023-03-25T04:36:59.065Z,36.70
2023-03-25T04:39:32.888Z,36.73
2023-03-25T04:42:06.785Z,39.30
2023-03-25T04:44:40.501Z,40.10
2023-03-25T04:47:18.126Z,39.40
2023-03-25T04:49:51.587Z,37.00
2023-03-25T04:52:25.611Z,36.20
2023-03-25T04:54:58.996Z,38.43
2023-03-25T04:57:32.843Z,47.50
2023-03-25T05:00:07.833Z,44.10
2023-03-25T05:02:46.242Z,46.23
2023-03-25T05:05:21.564Z,48.20
2023-03-25T05:07:58.535Z,54.07
2023-03-25T05:10:32.650Z,54.60
2023-03-25T05:13:07.828Z,56.17
2023-03-25T05:15:41.295Z,56.40
2023-03-25T05:18:17.271Z,59.13
2023-03-25T05:20:51.776Z,61.10
2023-03-25T05:23:25.170Z,59.53
2023-03-25T05:25:58.736Z,62.50
2023-03-25T05:28:32.145Z,64.00
2023-03-25T05:31:08.626Z,66.03
2023-03-25T05:33:43.718Z,61.63
2023-03-25T05:36:17.789Z,60.67
2023-03-25T05:38:51.466Z,63.47
2023-03-25T05:41:32.927Z,62.47
2023-03-25T05:44:07.187Z,71.07
2023-03-25T05:46:40.258Z,67.70
2023-03-25T05:49:12.830Z,65.80
2023-03-25T05:51:45.406Z,73.97
2023-03-25T05:54:17.981Z,68.90
2023-03-25T05:56:50.579Z,67.65
2023-03-25T06:01:55.532Z,72.47
2023-03-25T06:04:29.313Z,64.75
2023-03-25T06:07:02.093Z,73.57
2023-03-25T06:09:35.282Z,68.97
2023-03-25T06:12:08.938Z,75.63
2023-03-25T06:14:43.303Z,74.60
2023-03-25T06:17:16.272Z,64.90
2023-03-25T06:19:48.862Z,62.97
2023-03-25T06:22:22.340Z,58.70
2023-03-25T06:24:55.038Z,56.10
2023-03-25T06:27:28.430Z,57.27
2023-03-25T06:30:01.022Z,57.95
2023-03-25T06:32:33.761Z,56.73
2023-03-25T06:35:07.609Z,54.95
2023-03-25T06:37:40.369Z,57.20
2023-03-25T06:40:18.276Z,55.20
2023-03-25T06:42:51.670Z,52.60
2023-03-25T06:45:30.181Z,51.42
2023-03-25T06:48:18.527Z,52.25
2023-03-25T06:50:51.113Z,50.25
2023-03-25T06:53:23.906Z,49.73
2023-03-25T06:55:57.900Z,47.43
2023-03-25T06:58:35.462Z,47.05
2023-03-25T07:01:09.400Z,46.90
2023-03-25T07:03:43.002Z,44.67
2023-03-25T07:06:16.388Z,40.78
2023-03-25T07:08:48.967Z,39.03
2023-03-25T07:11:26.615Z,37.65
2023-03-25T07:13:59.234Z,37.45
2023-03-25T07:16:31.856Z,39.65
2023-03-25T07:19:04.393Z,33.70
2023-03-25T07:21:37.167Z,35.88
2023-03-25T07:24:10.637Z,38.15
2023-03-25T07:26:43.135Z,37.03
2023-03-25T07:29:16.532Z,36.30
2023-03-25T07:31:49.359Z,33.73
2023-03-25T07:34:21.896Z,30.00
2023-03-25T07:36:54.672Z,28.70
2023-03-25T07:39:27.654Z,31.42
2023-03-25T07:42:00.446Z,28.40
2023-03-25T07:44:55.743Z,27.77
2023-03-25T07:47:29.184Z,22.07
2023-03-25T07:50:02.124Z,23.38
2023-03-25T07:52:36.543Z,21.15
2023-03-25T07:55:10.650Z,22.62
2023-03-25T07:57:44.574Z,19.33
2023-03-25T08:00:19.004Z,22.70
2023-03-25T08:02:53.261Z,23.90
2023-03-25T08:05:25.774Z,21.93
2023-03-25T08:08:01.255Z,23.83
2023-03-25T08:10:35.423Z,24.05
2023-03-25T08:13:08.003Z,27.25
2023-03-25T08:15:40.802Z,28.07
2023-03-25T08:18:13.387Z,26.77
2023-03-25T08:20:45.743Z,24.85
2023-03-25T08:23:20.225Z,23.20
2023-03-25T08:25:54.236Z,24.25
2023-03-25T08:28:27.610Z,18.27
2023-03-25T08:31:02.798Z,18.70
2023-03-25T08:33:41.368Z,15.23
2023-03-25T08:36:20.431Z,20.17
2023-03-25T08:38:54.353Z,15.80
2023-03-25T08:41:28.145Z,18.23
2023-03-25T08:44:01.725Z,17.77
2023-03-25T08:46:35.383Z,18.93
2023-03-25T08:49:09.050Z,18.60
2023-03-25T08:51:42.851Z,19.27
2023-03-25T08:54:16.456Z,15.60
2023-03-25T08:56:50.525Z,17.60
2023-03-25T08:59:24.794Z,14.37
2023-03-25T09:02:00.789Z,14.83
2023-03-25T09:04:34.748Z,14.23
2023-03-25T09:07:12.586Z,16.73
2023-03-25T09:09:46.043Z,15.23
2023-03-25T09:12:19.503Z,17.37
2023-03-25T09:14:52.831Z,14.80
2023-03-25T09:17:27.528Z,18.17
2023-03-25T09:20:01.003Z,16.33
2023-03-25T09:22:34.323Z,18.07
2023-03-25T09:25:10.937Z,16.67
2023-03-25T09:27:43.896Z,18.27
2023-03-25T09:30:19.661Z,16.80
2023-03-25T09:32:53.186Z,13.97
2023-03-25T09:35:26.775Z,13.67
2023-03-25T09:38:00.196Z,14.57
2023-03-25T09:40:35.789Z,13.87
2023-03-25T09:43:22.498Z,15.27
2023-03-25T09:45:58.290Z,15.23
2023-03-25T09:48:38.331Z,15.47
2023-03-25T09:51:19.579Z,14.43
2023-03-25T09:53:57.491Z,12.82
2023-03-25T09:56:41.895Z,12.33
2023-03-25T09:59:19.828Z,14.07
2023-03-25T10:02:03.600Z,15.40
2023-03-25T10:04:57.460Z,21.07
2023-03-25T10:07:46.227Z,13.80
2023-03-25T10:10:27.184Z,13.53
2023-03-25T10:13:08.913Z,15.28
2023-03-25T10:15:46.249Z,14.23
2023-03-25T10:18:39.121Z,14.07
2023-03-25T10:21:18.245Z,14.27
2023-03-25T10:23:59.214Z,13.17
2023-03-25T10:26:38.692Z,13.80
2023-03-25T10:29:16.989Z,13.73
2023-03-25T10:31:54.373Z,11.57
2023-03-25T10:34:37.580Z,10.63
2023-03-25T10:37:18.367Z,13.60
2023-03-25T10:39:52.318Z,10.87
2023-03-25T10:42:33.741Z,12.70
2023-03-25T10:45:14.506Z,9.90
2023-03-25T10:47:51.418Z,10.85
2023-03-25T10:50:26.361Z,8.40
2023-03-25T10:53:00.301Z,10.00
2023-03-25T10:55:37.622Z,9.43
2023-03-25T10:58:12.672Z,11.70
2023-03-25T11:00:46.008Z,9.50
2023-03-25T11:03:23.664Z,9.00
2023-03-25T11:05:57.121Z,10.07
2023-03-25T11:08:30.731Z,9.30
2023-03-25T11:11:06.262Z,16.60
2023-03-25T11:13:41.714Z,9.10
2023-03-25T11:16:16.073Z,11.53
2023-03-25T11:18:49.756Z,10.30
2023-03-25T11:21:23.968Z,9.60
2023-03-25T11:23:57.956Z,9.47
2023-03-25T11:26:38.727Z,10.20
2023-03-25T11:29:16.950Z,10.27
2023-03-25T11:31:59.423Z,11.20
2023-03-25T11:34:33.321Z,11.87
2023-03-25T11:37:17.505Z,12.80
2023-03-25T11:39:55.781Z,12.43
2023-03-25T11:42:34.417Z,8.37
2023-03-25T11:45:20.390Z,9.10
2023-03-25T11:47:54.944Z,9.83
2023-03-25T11:50:30.718Z,8.53
2023-03-25T11:53:06.223Z,10.23
2023-03-25T11:55:47.086Z,12.60
2023-03-25T11:58:23.532Z,12.87
2023-03-25T12:01:05.496Z,11.77
2023-03-25T12:03:39.827Z,13.17
2023-03-25T12:06:20.466Z,23.83
2023-03-25T12:08:55.645Z,28.53
2023-03-25T12:11:34.064Z,17.70
2023-03-25T12:14:27.699Z,18.50
2023-03-25T12:17:07.718Z,182.70
2023-03-25T12:19:54.425Z,78.47
2023-03-25T12:22:46.424Z,108.83
2023-03-25T12:25:33.990Z,28.90
2023-03-25T12:28:32.480Z,80.47
2023-03-25T12:31:11.579Z,18.47
2023-03-25T12:33:59.642Z,12.23
2023-03-25T12:36:45.732Z,8.77
2023-03-25T12:39:43.333Z,13.53
2023-03-25T12:42:29.792Z,12.60
2023-03-25T12:45:23.938Z,10.50
2023-03-25T12:48:03.991Z,12.70
2023-03-25T12:50:49.828Z,9.07
2023-03-25T12:53:46.250Z,9.57
2023-03-25T12:56:37.806Z,9.53
2023-03-25T12:59:38.647Z,9.95
2023-03-25T13:02:31.822Z,8.67
2023-03-25T13:05:17.655Z,8.53
2023-03-25T13:07:55.986Z,10.53
2023-03-25T13:10:35.567Z,8.27
2023-03-25T13:13:15.746Z,8.00
2023-03-25T13:15:54.659Z,8.90
2023-03-25T13:18:33.000Z,9.70
2023-03-25T13:21:14.187Z,9.57
2023-03-25T13:23:54.129Z,9.30
2023-03-25T13:26:31.624Z,6.87
2023-03-25T13:29:09.177Z,7.93
2023-03-25T13:31:47.061Z,7.60
2023-03-25T13:34:30.067Z,8.43
2023-03-25T13:37:18.061Z,8.77
2023-03-25T13:40:04.379Z,9.80
2023-03-25T13:42:44.441Z,7.13
2023-03-25T13:45:21.433Z,7.90
2023-03-25T13:48:03.870Z,7.67
2023-03-25T13:50:38.010Z,7.97
2023-03-25T13:53:20.317Z,9.30
2023-03-25T13:56:15.115Z,7.10
2023-03-25T13:59:06.512Z,8.30
2023-03-25T14:01:54.940Z,8.30
2023-03-25T14:04:49.128Z,8.43
2023-03-25T14:07:59.427Z,9.27
2023-03-25T14:11:03.192Z,8.17
2023-03-25T14:13:41.232Z,10.00
2023-03-25T14:16:17.462Z,8.87
2023-03-25T14:18:54.086Z,8.57
2023-03-25T14:21:34.219Z,7.83
2023-03-25T14:24:13.040Z,8.30
2023-03-25T14:26:52.303Z,11.77
2023-03-25T14:29:37.819Z,10.47
2023-03-25T14:32:32.654Z,9.23
2023-03-25T14:35:41.878Z,9.67
2023-03-25T14:38:55.123Z,9.30
2023-03-25T14:41:59.097Z,8.93
2023-03-25T14:44:33.505Z,11.50
2023-03-25T14:47:33.071Z,10.73
2023-03-25T14:50:31.026Z,8.30
2023-03-25T14:53:11.901Z,7.87
2023-03-25T14:55:48.696Z,12.77
2023-03-25T14:58:25.314Z,8.80
2023-03-25T15:01:01.142Z,8.20
2023-03-25T15:03:37.488Z,9.30
2023-03-25T15:06:16.465Z,9.20
2023-03-25T15:08:59.729Z,9.43
2023-03-25T15:11:37.471Z,11.67
2023-03-25T15:14:15.495Z,12.07
2023-03-25T15:17:05.030Z,9.53
2023-03-25T15:20:27.741Z,9.93
2023-03-25T15:23:33.128Z,10.50
2023-03-25T15:26:10.977Z,10.10
2023-03-25T15:29:11.549Z,9.67
2023-03-25T15:32:10.035Z,11.50
2023-03-25T15:35:14.804Z,11.30
2023-03-25T15:38:07.200Z,11.03
2023-03-25T15:40:57.770Z,12.40
2023-03-25T15:44:14.988Z,12.80
2023-03-25T15:47:22.192Z,11.10
2023-03-25T15:50:12.959Z,13.90
2023-03-25T15:53:35.907Z,11.83
2023-03-25T15:56:17.832Z,12.87
2023-03-25T15:58:58.906Z,12.20
2023-03-25T16:01:34.498Z,10.32
2023-03-25T16:04:12.865Z,8.83
2023-03-25T16:06:50.747Z,9.63
2023-03-25T16:09:28.695Z,10.73
2023-03-25T16:12:04.576Z,10.57
2023-03-25T16:14:39.434Z,7.93
2023-03-25T16:17:16.676Z,11.23
2023-03-25T16:19:53.221Z,9.23
2023-03-25T16:22:30.514Z,11.13
2023-03-25T16:25:06.798Z,11.43
2023-03-25T16:27:45.643Z,10.17
2023-03-25T16:30:29.268Z,11.10
2023-03-25T16:33:17.469Z,12.70
2023-03-25T16:35:56.650Z,13.10
2023-03-25T16:38:30.902Z,16.43
2023-03-25T16:41:05.792Z,12.37
2023-03-25T16:43:39.529Z,14.67
2023-03-25T16:46:16.407Z,13.83
2023-03-25T16:48:55.094Z,16.20
2023-03-25T16:51:32.329Z,13.00
2023-03-25T16:54:13.383Z,13.03
2023-03-25T16:56:47.014Z,12.03
2023-03-25T16:59:24.432Z,12.73
2023-03-25T17:01:59.659Z,18.77
2023-03-25T17:04:42.176Z,22.60
2023-03-25T17:07:21.109Z,15.43
2023-03-25T17:09:56.970Z,14.80
2023-03-25T17:12:31.964Z,13.37
2023-03-25T17:15:09.485Z,11.40
2023-03-25T17:17:49.718Z,10.13
2023-03-25T17:20:28.271Z,12.17
2023-03-25T17:23:04.583Z,12.83
2023-03-25T17:25:52.087Z,10.70
2023-03-25T17:28:33.884Z,10.43
2023-03-25T17:31:22.047Z,12.05
2023-03-25T17:34:00.696Z,9.30
2023-03-25T17:36:36.445Z,9.30
2023-03-25T17:39:19.112Z,10.40
2023-03-25T17:41:59.161Z,9.20
2023-03-25T17:44:37.474Z,11.37
2023-03-25T17:47:14.713Z,10.50
2023-03-25T17:49:48.346Z,9.07
2023-03-25T17:52:21.745Z,10.73
2023-03-25T17:54:55.342Z,13.17
2023-03-25T17:57:28.797Z,12.77
2023-03-25T18:00:02.202Z,12.23
2023-03-25T18:02:41.846Z,11.37
2023-03-25T18:05:15.982Z,10.50
2023-03-25T18:07:49.482Z,10.97
2023-03-25T18:10:25.710Z,10.80
2023-03-25T18:12:59.345Z,10.73
2023-03-25T18:15:33.454Z,14.27
2023-03-25T18:18:08.216Z,12.40
2023-03-25T18:20:41.672Z,14.37
2023-03-25T18:23:15.837Z,12.07
2023-03-25T18:25:49.405Z,13.10
2023-03-25T18:28:22.894Z,13.17
2023-03-25T18:30:58.873Z,10.30
2023-03-25T18:33:34.912Z,12.07
2023-03-25T18:36:10.690Z,9.90
2023-03-25T18:38:44.716Z,12.37
2023-03-25T18:41:18.563Z,11.43
2023-03-25T18:43:52.184Z,9.57
2023-03-25T18:46:25.777Z,11.33
2023-03-25T18:49:03.060Z,10.57
2023-03-25T18:51:37.670Z,12.07
2023-03-25T18:54:11.084Z,12.40
2023-03-25T18:56:44.629Z,13.13
2023-03-25T18:59:20.792Z,14.93
2023-03-25T19:01:54.194Z,13.60
2023-03-25T19:04:29.776Z,11.70
2023-03-25T19:07:04.227Z,10.87
2023-03-25T19:09:37.594Z,12.10
2023-03-25T19:12:12.132Z,13.07
2023-03-25T19:14:45.404Z,13.53
2023-03-25T19:17:19.027Z,12.80
2023-03-25T19:19:52.401Z,10.47
2023-03-25T19:22:26.220Z,11.47
2023-03-25T19:25:00.101Z,9.65
2023-03-25T19:27:33.637Z,14.47
2023-03-25T19:30:09.118Z,14.30
2023-03-25T19:32:44.306Z,12.50
2023-03-25T19:35:19.139Z,14.60
2023-03-25T19:37:52.540Z,13.87
2023-03-25T19:40:28.762Z,11.80
2023-03-25T19:43:05.396Z,10.60
2023-03-25T19:45:38.840Z,12.17
2023-03-25T19:48:12.440Z,12.27
2023-03-25T19:50:45.632Z,11.70
2023-03-25T19:53:18.607Z,13.30
2023-03-25T19:55:52.983Z,13.57
2023-03-25T19:58:27.469Z,13.33
2023-03-25T20:01:01.748Z,13.60
2023-03-25T20:03:36.586Z,15.03
2023-03-25T20:06:11.554Z,12.33
2023-03-25T20:08:45.163Z,11.07
2023-03-25T20:11:18.731Z,11.63
2023-03-25T20:13:52.568Z,11.63
2023-03-25T20:16:28.007Z,10.67
2023-03-25T20:19:01.295Z,11.37
2023-03-25T20:21:34.976Z,12.33
2023-03-25T20:24:09.509Z,11.53
2023-03-25T20:26:42.806Z,11.20
2023-03-25T20:29:17.851Z,11.87
2023-03-25T20:31:51.339Z,13.13
2023-03-25T20:34:24.823Z,12.20
2023-03-25T20:36:58.226Z,11.13
2023-03-25T20:39:32.019Z,11.33
2023-03-25T20:42:05.823Z,11.33
2023-03-25T20:44:39.456Z,14.77
2023-03-25T20:47:13.651Z,16.93
2023-03-25T20:49:47.267Z,15.60
2023-03-25T20:52:21.049Z,18.20
2023-03-25T20:54:55.786Z,15.43
2023-03-25T20:57:29.343Z,12.07
2023-03-25T21:00:02.740Z,13.60
2023-03-25T21:02:36.118Z,12.53
2023-03-25T21:05:11.245Z,14.13
2023-03-25T21:07:44.858Z,13.20
2023-03-25T21:10:20.360Z,12.07
2023-03-25T21:12:53.733Z,11.20
2023-03-25T21:15:27.544Z,14.50
2023-03-25T21:18:01.225Z,12.67
2023-03-25T21:20:34.733Z,11.07
2023-03-25T21:23:10.003Z,10.93
2023-03-25T21:25:43.572Z,12.77
2023-03-25T21:28:18.161Z,11.33
2023-03-25T21:31:03.490Z,12.00
2023-03-25T21:33:38.576Z,12.13
2023-03-25T21:36:14.822Z,12.50
2023-03-25T21:38:48.775Z,13.07
2023-03-25T21:41:22.435Z,12.27
2023-03-25T21:43:55.492Z,11.53
2023-03-25T21:46:29.571Z,13.60
2023-03-25T21:49:04.565Z,12.33
2023-03-25T21:51:42.924Z,11.37
2023-03-25T21:54:16.316Z,13.03
2023-03-25T21:56:55.132Z,12.67
2023-03-25T21:59:28.840Z,12.47
2023-03-25T22:02:02.446Z,16.07
2023-03-25T22:04:37.877Z,15.10
2023-03-25T22:07:11.244Z,12.07
2023-03-25T22:09:44.700Z,11.10
2023-03-25T22:12:18.266Z,11.83
2023-03-25T22:14:51.947Z,11.27
2023-03-25T22:17:25.310Z,13.53
2023-03-25T22:19:58.660Z,11.03
2023-03-25T22:22:31.681Z,10.87
2023-03-25T22:25:05.643Z,11.13
2023-03-25T22:27:39.652Z,11.77
2023-03-25T22:30:16.937Z,10.00
2023-03-25T22:32:50.399Z,11.83
2023-03-25T22:35:24.136Z,11.53
2023-03-25T22:37:57.855Z,9.90
2023-03-25T22:40:31.142Z,11.60
2023-03-25T22:43:04.731Z,11.37
2023-03-25T22:45:38.193Z,10.90
2023-03-25T22:48:11.714Z,10.90
2023-03-25T22:50:45.733Z,9.53
2023-03-25T22:53:19.540Z,10.30
2023-03-25T22:55:55.458Z,9.30
2023-03-25T22:58:31.636Z,8.77
2023-03-25T23:01:07.633Z,9.40
2023-03-25T23:03:41.666Z,10.93
2023-03-25T23:06:15.672Z,9.10
2023-03-25T23:08:49.139Z,9.33
2023-03-25T23:11:25.592Z,9.43
2023-03-25T23:14:01.862Z,8.30
2023-03-25T23:16:35.990Z,8.30
2023-03-25T23:19:10.967Z,8.23
2023-03-25T23:21:44.727Z,9.30
2023-03-25T23:24:18.110Z,9.27
2023-03-25T23:26:51.581Z,8.60
2023-03-25T23:29:25.122Z,8.30
2023-03-25T23:31:58.553Z,7.70
2023-03-25T23:34:31.935Z,9.30
2023-03-25T23:37:06.739Z,7.63
2023-03-25T23:39:42.153Z,9.13
2023-03-25T23:42:15.972Z,7.23
2023-03-25T23:44:49.935Z,7.53
2023-03-25T23:47:23.430Z,8.13
2023-03-25T23:49:58.275Z,7.57
2023-03-25T23:52:33.631Z,7.10
2023-03-25T23:55:12.538Z,8.13
2023-03-25T23:57:46.164Z,8.73
